Weather observations for the past three days for
Cotulla, Cotulla-La Salle County Airport
Imperial (Metric)
Date Time (cdt) Wind (mph) Vis. (mi.) Weather Sky Cond. Temperature (ºF) Relative Humidity Wind Chill (°F) Heat Index (°F) Pressure Precipitation (in)
Air Dwpt 6 hour altimeter (in) sea level (mb) 1 hr 3 hr 6 hr
Max. Min.
31 11:53 Vrbl 6 10.00 Fair CLR 91.9 72 52% 100 29.98 1014.2
31 10:53 SE 7 10.00 Fair CLR 88 73.9 63% 97 29.99 1014.6
31 09:53 S 10 10.00 Partly Cloudy SCT018 84 75 74% 92 29.99 1014.5
31 08:53 SE 10 10.00 Partly Cloudy SCT011 81 75.9 85% 87 29.98 1014.3
31 07:53 E 7 10.00 Fair CLR 79 75 88% 83 29.96 1013.6
31 06:53 E 7 10.00 Fair CLR 79 75 84 79 88% 83 29.95 1013.3
31 05:53 E 6 10.00 Fair CLR 79 75 88% 83 29.94 1013.0
31 04:53 E 8 10.00 Fair CLR 80.1 75 85% 85 29.94 1013.1
31 03:53 SE 7 10.00 Fair CLR 81 73.9 79% 86 29.94 1013.1
31 02:53 SE 12 10.00 Fair CLR 82 73.9 77% 88 29.95 1013.4
31 01:53 SE 9 10.00 Fair CLR 82.9 73 72% 89 29.97 1013.8
31 00:53 SE 14 G 25 10.00 Fair CLR 84 72 100 84 67% 90 29.96 1013.6
30 23:53 SE 15 10.00 Fair CLR 84.9 72 65% 91 29.95 1013.3
30 22:53 SE 18 G 28 10.00 Fair CLR 87.1 70 57% 92 29.94 1012.8
30 21:53 SE 18 10.00 Fair CLR 90 69.1 50% 95 29.92 1012.1
30 20:53 SE 17 G 29 10.00 A Few Clouds FEW090 93 66.9 42% 97 29.88 1010.9
30 19:53 SE 10 10.00 Fair CLR 98.1 63 32% 100 29.85 1009.9
30 18:53 SE 14 G 23 10.00 Fair CLR 100 63 102.9 95 30% 102 29.84 1009.6
30 17:53 SE 10 10.00 Fair CLR 102 62.1 27% 104 29.84 1009.6
30 16:53 SE 14 G 20 10.00 Partly Cloudy SCT095 102.9 61 25% 104 29.85 1009.9
30 15:53 Calm 10.00 Partly Cloudy SCT085 100.9 64 30% 104 29.88 1011.0
30 14:53 SE 12 G 20 10.00 Partly Cloudy SCT070 100 64 31% 103 29.92 1012.2
30 13:53 SE 12 G 20 10.00 Mostly Cloudy BKN070 97 64.9 35% 100 29.95 1013.2
30 12:53 S 7 G 17 10.00 A Few Clouds FEW050 96.1 69.1 96.1 75.9 41% 102 29.98 1014.2
30 11:53 SE 10 10.00 Fair CLR 91.9 71.1 51% 99 30 1014.9
30 10:53 SE 12 10.00 Fair CLR 89.1 73 59% 97 30.01 1015.2
30 09:53 SE 10 10.00 Fair CLR 84.9 73.9 70% 92 30.01 1015.2
30 08:53 SE 9 10.00 A Few Clouds FEW002 81 75 82% 87 30 1015.0
30 07:53 SE 7 10.00 Fair CLR 77 73.9 90% 78 29.99 1014.7
30 06:53 E 7 10.00 Fair CLR 77 73.9 82.9 77 90% 78 29.98 1014.3
30 05:53 E 5 10.00 Fair CLR 78.1 73.9 87% 81 29.97 1014.1
30 04:53 E 6 10.00 Fair CLR 78.1 73.9 87% 81 29.98 1014.1
30 03:53 SE 8 10.00 Fair CLR 79 73.9 85% 83 29.97 1013.8
30 02:53 SE 9 10.00 Fair CLR 80.1 73 79% 84 29.98 1014.3
30 01:53 SE 9 10.00 Fair CLR 81 71.1 72% 85 29.99 1014.6
30 00:53 SE 12 10.00 Fair CLR 82.9 70 99 82.9 65% 87 29.99 1014.8
29 23:53 SE 12 G 22 10.00 Fair CLR 84.9 70 61% 89 29.99 1014.6
29 22:53 SE 15 10.00 Fair CLR 87.1 68 53% 91 29.98 1014.1
29 21:53 SE 14 10.00 Fair CLR 90 68 48% 94 29.96 1013.5
29 20:53 SE 16 G 25 10.00 Fair CLR 91.9 68 46% 96 29.93 1012.6
29 19:53 SE 12 10.00 Fair CLR 95 68 41% 100 29.91 1012.0
29 18:53 SE 18 G 29 10.00 Mostly Cloudy BKN085 99 66 100.9 93.9 34% 103 29.9 1011.7
29 17:53 SE 12 G 20 10.00 Partly Cloudy SCT080 100.9 63 29% 103 29.9 1011.5
29 16:53 SE 12 10.00 Partly Cloudy FEW080 SCT100 100 64 31% 103 29.91 1012.0
29 15:53 SE 13 G 26 10.00 Mostly Cloudy BKN070 100.9 64.9 31% 105 29.94 1012.9
29 14:53 E 9 G 17 10.00 Partly Cloudy SCT070 SCT085 98.1 64.9 34% 101 29.97 1014.0
29 13:53 S 7 10.00 A Few Clouds FEW065 98.1 66.9 36% 103 30 1014.9
29 12:53 E 10 10.00 A Few Clouds FEW055 95 66.9 96.1 77 40% 99 30.03 1016.0
29 11:53 SE 12 G 18 10.00 Fair CLR 91.9 68 46% 96 30.06 1016.9
29 10:53 SE 7 10.00 Fair CLR 89.1 71.1 55% 95 30.06 1017.1
29 09:53 SE 9 10.00 Fair CLR 86 73 65% 93 30.06 1016.8
29 08:53 E 8 10.00 Fair CLR 81 75 82% 87 30.05 1016.6
29 07:53 E 8 10.00 Fair CLR 78.1 73.9 87% 81 30.04 1016.1
29 06:53 E 7 10.00 Fair CLR 77 73.9 82 77 90% 78 30.02 1015.6
29 05:53 E 6 10.00 Fair CLR 78.1 73 85% 81 30.01 1015.3
29 04:53 E 7 10.00 Fair CLR 79 73 82% 82 30.01 1015.3
29 03:53 E 3 10.00 Fair CLR 80.1 73 79% 84 30 1015.1
29 02:53 E 7 10.00 Fair CLR 81 72 74% 85 30.01 1015.4
29 01:53 E 10 10.00 Fair CLR 82 71.1 69% 86 30.02 1015.6
29 00:53 Calm 10.00 Fair CLR 82 70 100 82 67% 86 29.98 1014.2
28 23:53 NE 3 10.00 Fair CLR 82.9 70 65% 87 30 1015.1
28 22:53 SE 13 10.00 A Few Clouds FEW120 86 69.1 57% 90 30.02 1015.6
28 21:53 SE 17 G 24 10.00 Fair CLR 87.1 66.9 51% 90 29.98 1014.4
28 20:53 SE 13 G 26 10.00 A Few Clouds FEW100 84 66.9 57% 87 29.97 1014.1
28 19:53 S 12 G 23 10.00 Mostly Cloudy BKN085 93 66 41% 96 29.92 1012.3
28 18:53 E 8 10.00 Fair CLR 100 63 102 93 30% 102 29.89 1011.4
28 17:53 E 7 10.00 A Few Clouds FEW090 100.9 63 29% 103 29.9 1011.4
28 16:53 NE 10 10.00 Fair CLR 102 63 28% 104 29.9 1011.6
28 15:53 NE 9 10.00 Fair CLR 100.9 64 30% 104 29.94 1012.9
28 14:53 N 3 10.00 Fair CLR 99 61 29% 100 29.97 1014.1
28 13:53 Calm 10.00 Fair CLR 98.1 61 29% 99 30.01 1015.2
28 12:53 N 5 10.00 Fair CLR 93 64.9 93 77 40% 95 30.03 1016.1
Date Time (cdt) Wind (mph) Vis. (mi.) Weather Sky Cond. Air Dwpt Max. Min. Relative Humidity Wind Chill (°F) Heat Index (°F) altimeter (in) sea level (mb) 1 hr 3 hr 6 hr
6 hour
Temperature (ºF) Pressure Precipitation (in)